sensor_id;sensor_type;location;lat;lon;timestamp;temperature;humidity
8994;DHT22;4532;50.886;4.700;2024-02-21T00:01:21;12.00;79.10
8994;DHT22;4532;50.886;4.700;2024-02-21T00:03:48;12.00;79.10
8994;DHT22;4532;50.886;4.700;2024-02-21T00:06:18;12.00;79.10
8994;DHT22;4532;50.886;4.700;2024-02-21T00:08:45;12.00;79.20
8994;DHT22;4532;50.886;4.700;2024-02-21T00:11:12;12.00;79.20
8994;DHT22;4532;50.886;4.700;2024-02-21T00:13:42;12.10;79.20
8994;DHT22;4532;50.886;4.700;2024-02-21T00:16:09;12.00;79.10
8994;DHT22;4532;50.886;4.700;2024-02-21T00:18:38;12.00;79.10
8994;DHT22;4532;50.886;4.700;2024-02-21T00:21:05;12.00;79.00
8994;DHT22;4532;50.886;4.700;2024-02-21T00:23:32;12.00;79.00
8994;DHT22;4532;50.886;4.700;2024-02-21T00:25:59;12.00;79.00
8994;DHT22;4532;50.886;4.700;2024-02-21T00:28:27;12.00;79.10
8994;DHT22;4532;50.886;4.700;2024-02-21T00:30:54;12.00;79.20
8994;DHT22;4532;50.886;4.700;2024-02-21T00:33:21;12.00;79.20
8994;DHT22;4532;50.886;4.700;2024-02-21T00:35:53;12.00;79.10
8994;DHT22;4532;50.886;4.700;2024-02-21T00:38:20;12.00;79.20
8994;DHT22;4532;50.886;4.700;2024-02-21T00:40:47;12.10;79.20
8994;DHT22;4532;50.886;4.700;2024-02-21T00:43:15;12.00;79.20
8994;DHT22;4532;50.886;4.700;2024-02-21T00:45:42;12.10;79.20
8994;DHT22;4532;50.886;4.700;2024-02-21T00:48:12;12.10;79.20
8994;DHT22;4532;50.886;4.700;2024-02-21T00:50:39;12.10;79.20
8994;DHT22;4532;50.886;4.700;2024-02-21T00:53:06;12.10;79.20
8994;DHT22;4532;50.886;4.700;2024-02-21T00:55:34;12.10;79.10
8994;DHT22;4532;50.886;4.700;2024-02-21T00:58:01;12.10;79.10
8994;DHT22;4532;50.886;4.700;2024-02-21T01:00:28;12.10;79.10
8994;DHT22;4532;50.886;4.700;2024-02-21T01:02:55;12.10;79.10
8994;DHT22;4532;50.886;4.700;2024-02-21T01:05:25;12.10;79.10
8994;DHT22;4532;50.886;4.700;2024-02-21T01:07:54;12.10;79.10
8994;DHT22;4532;50.886;4.700;2024-02-21T01:10:23;12.10;79.10
8994;DHT22;4532;50.886;4.700;2024-02-21T01:12:51;12.10;79.00
8994;DHT22;4532;50.886;4.700;2024-02-21T01:15:18;12.10;79.00
8994;DHT22;4532;50.886;4.700;2024-02-21T01:17:45;12.10;79.00
8994;DHT22;4532;50.886;4.700;2024-02-21T01:20:13;12.00;79.10
8994;DHT22;4532;50.886;4.700;2024-02-21T01:22:42;12.10;79.20
8994;DHT22;4532;50.886;4.700;2024-02-21T01:25:10;12.00;79.10
8994;DHT22;4532;50.886;4.700;2024-02-21T01:27:37;12.10;79.10
8994;DHT22;4532;50.886;4.700;2024-02-21T01:30:05;12.00;79.10
8994;DHT22;4532;50.886;4.700;2024-02-21T01:32:32;12.10;79.10
8994;DHT22;4532;50.886;4.700;2024-02-21T01:35:00;12.10;79.10
8994;DHT22;4532;50.886;4.700;2024-02-21T01:37:27;12.10;79.10
8994;DHT22;4532;50.886;4.700;2024-02-21T01:39:57;12.10;79.20
8994;DHT22;4532;50.886;4.700;2024-02-21T01:42:24;12.10;79.20
8994;DHT22;4532;50.886;4.700;2024-02-21T01:44:54;12.10;79.10
8994;DHT22;4532;50.886;4.700;2024-02-21T01:47:21;12.10;79.10
8994;DHT22;4532;50.886;4.700;2024-02-21T01:49:51;12.10;79.00
8994;DHT22;4532;50.886;4.700;2024-02-21T01:52:19;12.10;79.00
8994;DHT22;4532;50.886;4.700;2024-02-21T01:54:47;12.10;79.10
8994;DHT22;4532;50.886;4.700;2024-02-21T01:57:15;12.10;79.20
8994;DHT22;4532;50.886;4.700;2024-02-21T01:59:42;12.10;79.00
8994;DHT22;4532;50.886;4.700;2024-02-21T02:02:10;12.10;79.00
8994;DHT22;4532;50.886;4.700;2024-02-21T02:04:38;12.00;78.90
8994;DHT22;4532;50.886;4.700;2024-02-21T02:07:06;12.10;79.00
8994;DHT22;4532;50.886;4.700;2024-02-21T02:09:41;12.00;78.90
8994;DHT22;4532;50.886;4.700;2024-02-21T02:12:09;12.00;78.90
8994;DHT22;4532;50.886;4.700;2024-02-21T02:14:38;12.00;78.90
8994;DHT22;4532;50.886;4.700;2024-02-21T02:17:08;12.00;78.90
8994;DHT22;4532;50.886;4.700;2024-02-21T02:19:36;12.00;79.00
8994;DHT22;4532;50.886;4.700;2024-02-21T02:22:21;12.00;78.90
8994;DHT22;4532;50.886;4.700;2024-02-21T02:24:49;12.00;79.00
8994;DHT22;4532;50.886;4.700;2024-02-21T02:27:17;12.00;78.90
8994;DHT22;4532;50.886;4.700;2024-02-21T02:29:44;12.00;78.90
8994;DHT22;4532;50.886;4.700;2024-02-21T02:32:12;12.00;78.90
8994;DHT22;4532;50.886;4.700;2024-02-21T02:34:44;12.00;79.00
8994;DHT22;4532;50.886;4.700;2024-02-21T02:37:13;12.00;79.00
8994;DHT22;4532;50.886;4.700;2024-02-21T02:39:40;12.00;79.00
8994;DHT22;4532;50.886;4.700;2024-02-21T02:42:07;12.00;79.00
8994;DHT22;4532;50.886;4.700;2024-02-21T02:44:35;12.00;78.90
8994;DHT22;4532;50.886;4.700;2024-02-21T02:47:03;12.00;78.90
8994;DHT22;4532;50.886;4.700;2024-02-21T02:49:30;11.90;78.80
8994;DHT22;4532;50.886;4.700;2024-02-21T02:51:57;11.90;78.90
8994;DHT22;4532;50.886;4.700;2024-02-21T02:54:27;12.00;78.90
8994;DHT22;4532;50.886;4.700;2024-02-21T02:56:57;12.00;79.00
8994;DHT22;4532;50.886;4.700;2024-02-21T02:59:26;12.00;79.00
8994;DHT22;4532;50.886;4.700;2024-02-21T03:01:53;11.90;78.90
8994;DHT22;4532;50.886;4.700;2024-02-21T03:04:23;11.90;78.90
8994;DHT22;4532;50.886;4.700;2024-02-21T03:06:53;11.90;78.90
8994;DHT22;4532;50.886;4.700;2024-02-21T03:09:22;11.90;78.90
8994;DHT22;4532;50.886;4.700;2024-02-21T03:11:49;11.90;78.80
8994;DHT22;4532;50.886;4.700;2024-02-21T03:14:17;11.90;78.80
8994;DHT22;4532;50.886;4.700;2024-02-21T03:16:44;11.90;78.90
8994;DHT22;4532;50.886;4.700;2024-02-21T03:19:11;11.90;78.70
8994;DHT22;4532;50.886;4.700;2024-02-21T03:21:38;11.90;78.80
8994;DHT22;4532;50.886;4.700;2024-02-21T03:24:06;11.90;78.80
8994;DHT22;4532;50.886;4.700;2024-02-21T03:26:33;11.90;78.80
8994;DHT22;4532;50.886;4.700;2024-02-21T03:29:00;11.90;78.90
8994;DHT22;4532;50.886;4.700;2024-02-21T03:31:28;11.90;78.80
8994;DHT22;4532;50.886;4.700;2024-02-21T03:33:58;11.90;78.80
8994;DHT22;4532;50.886;4.700;2024-02-21T03:36:25;11.90;78.80
8994;DHT22;4532;50.886;4.700;2024-02-21T03:38:54;11.90;78.80
8994;DHT22;4532;50.886;4.700;2024-02-21T03:41:21;11.90;78.80
8994;DHT22;4532;50.886;4.700;2024-02-21T03:43:51;11.90;78.80
8994;DHT22;4532;50.886;4.700;2024-02-21T03:46:20;11.90;78.80
8994;DHT22;4532;50.886;4.700;2024-02-21T03:48:48;11.90;78.80
8994;DHT22;4532;50.886;4.700;2024-02-21T03:51:15;11.90;78.70
8994;DHT22;4532;50.886;4.700;2024-02-21T03:53:44;11.90;78.70
8994;DHT22;4532;50.886;4.700;2024-02-21T03:56:14;11.90;78.70
8994;DHT22;4532;50.886;4.700;2024-02-21T03:58:41;11.90;78.70
8994;DHT22;4532;50.886;4.700;2024-02-21T04:01:10;11.90;78.80
8994;DHT22;4532;50.886;4.700;2024-02-21T04:03:43;11.90;78.70
8994;DHT22;4532;50.886;4.700;2024-02-21T04:06:13;11.90;78.70
8994;DHT22;4532;50.886;4.700;2024-02-21T04:08:42;11.80;78.60
8994;DHT22;4532;50.886;4.700;2024-02-21T04:11:10;11.80;78.60
8994;DHT22;4532;50.886;4.700;2024-02-21T04:13:48;11.80;78.60
8994;DHT22;4532;50.886;4.700;2024-02-21T04:16:17;11.80;78.70
8994;DHT22;4532;50.886;4.700;2024-02-21T04:18:47;11.80;78.70
8994;DHT22;4532;50.886;4.700;2024-02-21T04:21:15;11.80;78.80
8994;DHT22;4532;50.886;4.700;2024-02-21T04:23:45;11.80;78.90
8994;DHT22;4532;50.886;4.700;2024-02-21T04:26:14;11.80;78.90
8994;DHT22;4532;50.886;4.700;2024-02-21T04:28:41;11.80;78.80
8994;DHT22;4532;50.886;4.700;2024-02-21T04:31:09;11.80;78.80
8994;DHT22;4532;50.886;4.700;2024-02-21T04:33:38;11.90;78.70
8994;DHT22;4532;50.886;4.700;2024-02-21T04:36:06;11.80;78.70
8994;DHT22;4532;50.886;4.700;2024-02-21T04:38:33;11.80;78.70
8994;DHT22;4532;50.886;4.700;2024-02-21T04:44:03;11.90;78.80
8994;DHT22;4532;50.886;4.700;2024-02-21T04:46:33;11.80;78.80
8994;DHT22;4532;50.886;4.700;2024-02-21T04:49:03;11.80;78.80
8994;DHT22;4532;50.886;4.700;2024-02-21T04:51:32;11.80;78.80
8994;DHT22;4532;50.886;4.700;2024-02-21T04:54:02;11.90;78.90
8994;DHT22;4532;50.886;4.700;2024-02-21T04:56:31;11.90;78.80
8994;DHT22;4532;50.886;4.700;2024-02-21T04:58:58;11.90;78.90
8994;DHT22;4532;50.886;4.700;2024-02-21T05:01:27;11.80;78.80
8994;DHT22;4532;50.886;4.700;2024-02-21T05:03:57;11.90;78.80
8994;DHT22;4532;50.886;4.700;2024-02-21T05:06:26;11.90;78.80
8994;DHT22;4532;50.886;4.700;2024-02-21T05:08:56;11.90;79.60
8994;DHT22;4532;50.886;4.700;2024-02-21T05:11:24;11.90;78.90
8994;DHT22;4532;50.886;4.700;2024-02-21T05:13:54;11.90;78.80
8994;DHT22;4532;50.886;4.700;2024-02-21T05:16:24;11.90;78.80
8994;DHT22;4532;50.886;4.700;2024-02-21T05:18:51;11.90;78.80
8994;DHT22;4532;50.886;4.700;2024-02-21T05:21:23;11.90;78.80
8994;DHT22;4532;50.886;4.700;2024-02-21T05:23:53;11.90;78.80
8994;DHT22;4532;50.886;4.700;2024-02-21T05:26:21;11.90;78.80
8994;DHT22;4532;50.886;4.700;2024-02-21T05:28:54;11.90;78.80
8994;DHT22;4532;50.886;4.700;2024-02-21T05:31:21;11.90;78.80
8994;DHT22;4532;50.886;4.700;2024-02-21T05:33:50;11.90;78.80
8994;DHT22;4532;50.886;4.700;2024-02-21T05:36:20;11.90;78.80
8994;DHT22;4532;50.886;4.700;2024-02-21T05:38:47;11.90;78.80
8994;DHT22;4532;50.886;4.700;2024-02-21T05:41:19;11.90;78.90
8994;DHT22;4532;50.886;4.700;2024-02-21T05:43:48;11.90;78.70
8994;DHT22;4532;50.886;4.700;2024-02-21T05:46:21;11.90;78.90
8994;DHT22;4532;50.886;4.700;2024-02-21T05:48:48;11.90;78.70
8994;DHT22;4532;50.886;4.700;2024-02-21T05:51:16;11.90;78.80
8994;DHT22;4532;50.886;4.700;2024-02-21T05:53:47;11.90;78.80
8994;DHT22;4532;50.886;4.700;2024-02-21T05:56:19;11.90;78.70
8994;DHT22;4532;50.886;4.700;2024-02-21T05:58:51;11.90;78.80
8994;DHT22;4532;50.886;4.700;2024-02-21T06:01:21;11.90;78.70
8994;DHT22;4532;50.886;4.700;2024-02-21T06:03:48;11.90;78.70
8994;DHT22;4532;50.886;4.700;2024-02-21T06:06:18;11.90;78.60
8994;DHT22;4532;50.886;4.700;2024-02-21T06:08:45;11.90;78.70
8994;DHT22;4532;50.886;4.700;2024-02-21T06:11:15;11.90;78.60
8994;DHT22;4532;50.886;4.700;2024-02-21T06:13:42;11.90;78.60
8994;DHT22;4532;50.886;4.700;2024-02-21T06:16:10;11.90;78.60
8994;DHT22;4532;50.886;4.700;2024-02-21T06:18:37;11.90;78.70
8994;DHT22;4532;50.886;4.700;2024-02-21T06:21:06;11.90;78.70
8994;DHT22;4532;50.886;4.700;2024-02-21T06:23:33;11.90;78.70
8994;DHT22;4532;50.886;4.700;2024-02-21T06:26:01;11.90;78.70
8994;DHT22;4532;50.886;4.700;2024-02-21T06:28:31;11.90;78.70
8994;DHT22;4532;50.886;4.700;2024-02-21T06:31:00;11.90;78.70
8994;DHT22;4532;50.886;4.700;2024-02-21T06:33:30;11.90;78.50
8994;DHT22;4532;50.886;4.700;2024-02-21T06:36:02;11.90;78.50
8994;DHT22;4532;50.886;4.700;2024-02-21T06:38:32;11.90;78.50
8994;DHT22;4532;50.886;4.700;2024-02-21T06:41:06;11.90;78.60
8994;DHT22;4532;50.886;4.700;2024-02-21T06:43:35;11.90;78.60
8994;DHT22;4532;50.886;4.700;2024-02-21T06:46:02;11.90;78.60
8994;DHT22;4532;50.886;4.700;2024-02-21T06:48:32;11.90;78.60
8994;DHT22;4532;50.886;4.700;2024-02-21T06:50:59;11.90;78.60
8994;DHT22;4532;50.886;4.700;2024-02-21T06:53:29;11.90;78.60
8994;DHT22;4532;50.886;4.700;2024-02-21T06:56:03;11.90;78.60
8994;DHT22;4532;50.886;4.700;2024-02-21T06:58:30;11.90;78.60
8994;DHT22;4532;50.886;4.700;2024-02-21T07:00:57;11.90;78.50
8994;DHT22;4532;50.886;4.700;2024-02-21T07:03:24;11.90;78.60
8994;DHT22;4532;50.886;4.700;2024-02-21T07:05:52;11.90;78.70
8994;DHT22;4532;50.886;4.700;2024-02-21T07:08:19;11.90;78.70
8994;DHT22;4532;50.886;4.700;2024-02-21T07:10:49;11.90;78.70
8994;DHT22;4532;50.886;4.700;2024-02-21T07:13:18;11.90;78.70
8994;DHT22;4532;50.886;4.700;2024-02-21T07:15:45;11.90;78.70
8994;DHT22;4532;50.886;4.700;2024-02-21T07:18:14;11.90;78.70
8994;DHT22;4532;50.886;4.700;2024-02-21T07:20:42;11.90;78.60
8994;DHT22;4532;50.886;4.700;2024-02-21T07:23:14;11.90;78.60
8994;DHT22;4532;50.886;4.700;2024-02-21T07:25:41;11.90;78.70
8994;DHT22;4532;50.886;4.700;2024-02-21T07:28:11;11.90;78.70
8994;DHT22;4532;50.886;4.700;2024-02-21T07:30:45;11.90;78.70
8994;DHT22;4532;50.886;4.700;2024-02-21T07:33:12;11.90;78.70
8994;DHT22;4532;50.886;4.700;2024-02-21T07:35:40;11.90;78.80
8994;DHT22;4532;50.886;4.700;2024-02-21T07:38:09;11.90;78.80
8994;DHT22;4532;50.886;4.700;2024-02-21T07:40:40;11.90;78.70
8994;DHT22;4532;50.886;4.700;2024-02-21T07:43:09;11.90;78.70
8994;DHT22;4532;50.886;4.700;2024-02-21T07:45:36;11.90;78.80
8994;DHT22;4532;50.886;4.700;2024-02-21T07:48:07;11.90;78.80
8994;DHT22;4532;50.886;4.700;2024-02-21T07:50:37;11.90;78.80
8994;DHT22;4532;50.886;4.700;2024-02-21T07:53:04;11.90;78.70
8994;DHT22;4532;50.886;4.700;2024-02-21T07:55:32;11.90;78.80
8994;DHT22;4532;50.886;4.700;2024-02-21T07:57:59;11.90;78.70
8994;DHT22;4532;50.886;4.700;2024-02-21T08:00:29;11.90;79.60
8994;DHT22;4532;50.886;4.700;2024-02-21T08:02:57;11.90;78.90
8994;DHT22;4532;50.886;4.700;2024-02-21T08:05:24;11.90;78.80
8994;DHT22;4532;50.886;4.700;2024-02-21T08:07:53;11.90;78.80
8994;DHT22;4532;50.886;4.700;2024-02-21T08:10:24;11.90;78.80
8994;DHT22;4532;50.886;4.700;2024-02-21T08:12:56;11.90;78.80
8994;DHT22;4532;50.886;4.700;2024-02-21T08:15:23;11.90;78.80
8994;DHT22;4532;50.886;4.700;2024-02-21T08:17:55;11.90;78.80
8994;DHT22;4532;50.886;4.700;2024-02-21T08:20:33;11.90;78.80
8994;DHT22;4532;50.886;4.700;2024-02-21T08:23:02;12.00;78.90
8994;DHT22;4532;50.886;4.700;2024-02-21T08:25:30;11.90;78.80
8994;DHT22;4532;50.886;4.700;2024-02-21T08:28:01;11.90;78.70
8994;DHT22;4532;50.886;4.700;2024-02-21T08:30:30;12.00;78.80
8994;DHT22;4532;50.886;4.700;2024-02-21T08:32:58;12.00;78.90
8994;DHT22;4532;50.886;4.700;2024-02-21T08:35:25;12.00;78.90
8994;DHT22;4532;50.886;4.700;2024-02-21T08:37:54;12.00;78.90
8994;DHT22;4532;50.886;4.700;2024-02-21T08:40:22;12.00;78.90
8994;DHT22;4532;50.886;4.700;2024-02-21T08:42:56;12.00;78.80
8994;DHT22;4532;50.886;4.700;2024-02-21T08:45:27;12.00;78.80
8994;DHT22;4532;50.886;4.700;2024-02-21T08:47:55;12.00;78.80
8994;DHT22;4532;50.886;4.700;2024-02-21T08:50:22;12.00;78.80
8994;DHT22;4532;50.886;4.700;2024-02-21T08:52:55;12.00;78.80
8994;DHT22;4532;50.886;4.700;2024-02-21T08:55:25;12.00;78.80
8994;DHT22;4532;50.886;4.700;2024-02-21T08:57:55;12.00;78.80
8994;DHT22;4532;50.886;4.700;2024-02-21T09:00:22;12.00;78.70
8994;DHT22;4532;50.886;4.700;2024-02-21T09:02:57;12.00;78.70
8994;DHT22;4532;50.886;4.700;2024-02-21T09:05:24;12.00;78.70
8994;DHT22;4532;50.886;4.700;2024-02-21T09:07:52;12.00;78.70
8994;DHT22;4532;50.886;4.700;2024-02-21T09:10:20;12.00;78.60
8994;DHT22;4532;50.886;4.700;2024-02-21T09:12:53;12.10;78.70
8994;DHT22;4532;50.886;4.700;2024-02-21T09:15:23;12.00;78.60
8994;DHT22;4532;50.886;4.700;2024-02-21T09:17:53;12.10;78.70
8994;DHT22;4532;50.886;4.700;2024-02-21T09:20:21;12.10;78.70
8994;DHT22;4532;50.886;4.700;2024-02-21T09:22:50;12.10;78.70
8994;DHT22;4532;50.886;4.700;2024-02-21T09:25:20;12.10;78.70
8994;DHT22;4532;50.886;4.700;2024-02-21T09:27:47;12.10;79.30
8994;DHT22;4532;50.886;4.700;2024-02-21T09:30:19;12.10;79.40
8994;DHT22;4532;50.886;4.700;2024-02-21T09:32:49;12.10;78.50
8994;DHT22;4532;50.886;4.700;2024-02-21T09:35:22;12.10;78.60
8994;DHT22;4532;50.886;4.700;2024-02-21T09:37:53;12.10;78.50
8994;DHT22;4532;50.886;4.700;2024-02-21T09:40:20;12.10;78.50
8994;DHT22;4532;50.886;4.700;2024-02-21T09:43:01;12.10;78.50
8994;DHT22;4532;50.886;4.700;2024-02-21T09:45:32;12.10;78.60
8994;DHT22;4532;50.886;4.700;2024-02-21T09:50:40;12.20;78.70
8994;DHT22;4532;50.886;4.700;2024-02-21T09:53:12;12.20;78.70
8994;DHT22;4532;50.886;4.700;2024-02-21T09:55:43;12.20;78.70
8994;DHT22;4532;50.886;4.700;2024-02-21T09:58:15;12.20;78.80
8994;DHT22;4532;50.886;4.700;2024-02-21T10:00:45;12.30;78.60
8994;DHT22;4532;50.886;4.700;2024-02-21T10:03:12;12.30;78.40
8994;DHT22;4532;50.886;4.700;2024-02-21T10:05:47;12.30;78.60
8994;DHT22;4532;50.886;4.700;2024-02-21T10:08:18;12.30;78.60
8994;DHT22;4532;50.886;4.700;2024-02-21T10:10:49;12.40;78.40
8994;DHT22;4532;50.886;4.700;2024-02-21T10:13:29;12.40;78.50
8994;DHT22;4532;50.886;4.700;2024-02-21T10:16:05;12.40;78.70
8994;DHT22;4532;50.886;4.700;2024-02-21T10:18:38;12.50;78.60
8994;DHT22;4532;50.886;4.700;2024-02-21T10:21:08;12.50;78.70
8994;DHT22;4532;50.886;4.700;2024-02-21T10:23:51;12.50;78.80
8994;DHT22;4532;50.886;4.700;2024-02-21T10:26:22;12.50;78.70
8994;DHT22;4532;50.886;4.700;2024-02-21T10:28:49;12.50;78.70
8994;DHT22;4532;50.886;4.700;2024-02-21T10:31:28;12.60;77.50
8994;DHT22;4532;50.886;4.700;2024-02-21T10:36:26;12.70;78.50
8994;DHT22;4532;50.886;4.700;2024-02-21T10:38:56;12.70;78.70
8994;DHT22;4532;50.886;4.700;2024-02-21T10:41:24;12.70;78.40
8994;DHT22;4532;50.886;4.700;2024-02-21T10:43:54;12.70;78.40
8994;DHT22;4532;50.886;4.700;2024-02-21T10:46:24;12.70;78.00
8994;DHT22;4532;50.886;4.700;2024-02-21T10:49:03;12.70;78.20
8994;DHT22;4532;50.886;4.700;2024-02-21T10:51:37;12.70;78.30
8994;DHT22;4532;50.886;4.700;2024-02-21T10:56:58;12.80;78.00
8994;DHT22;4532;50.886;4.700;2024-02-21T10:59:28;12.80;78.10
8994;DHT22;4532;50.886;4.700;2024-02-21T11:01:59;12.80;78.20
8994;DHT22;4532;50.886;4.700;2024-02-21T11:04:33;12.80;78.10
8994;DHT22;4532;50.886;4.700;2024-02-21T11:07:07;12.90;78.00
8994;DHT22;4532;50.886;4.700;2024-02-21T11:09:40;12.90;78.00
8994;DHT22;4532;50.886;4.700;2024-02-21T11:12:10;12.80;77.40
8994;DHT22;4532;50.886;4.700;2024-02-21T11:14:42;12.90;77.90
8994;DHT22;4532;50.886;4.700;2024-02-21T11:17:16;12.90;78.00
8994;DHT22;4532;50.886;4.700;2024-02-21T11:19:51;12.90;78.00
8994;DHT22;4532;50.886;4.700;2024-02-21T11:22:19;12.90;78.00
8994;DHT22;4532;50.886;4.700;2024-02-21T11:24:52;12.90;77.70
8994;DHT22;4532;50.886;4.700;2024-02-21T11:27:22;12.90;77.80
8994;DHT22;4532;50.886;4.700;2024-02-21T11:29:57;13.00;77.90
8994;DHT22;4532;50.886;4.700;2024-02-21T11:32:26;13.00;77.80
8994;DHT22;4532;50.886;4.700;2024-02-21T11:34:57;13.00;78.10
8994;DHT22;4532;50.886;4.700;2024-02-21T11:37:33;13.00;77.50
8994;DHT22;4532;50.886;4.700;2024-02-21T11:40:07;13.00;78.00
8994;DHT22;4532;50.886;4.700;2024-02-21T11:42:38;13.00;77.50
8994;DHT22;4532;50.886;4.700;2024-02-21T11:45:06;13.10;78.10
8994;DHT22;4532;50.886;4.700;2024-02-21T11:47:36;13.10;78.00
8994;DHT22;4532;50.886;4.700;2024-02-21T11:50:11;13.10;78.30
8994;DHT22;4532;50.886;4.700;2024-02-21T11:52:41;13.20;78.00
8994;DHT22;4532;50.886;4.700;2024-02-21T11:55:08;13.20;77.80
8994;DHT22;4532;50.886;4.700;2024-02-21T11:57:37;13.20;77.20
8994;DHT22;4532;50.886;4.700;2024-02-21T12:00:15;13.20;77.60
8994;DHT22;4532;50.886;4.700;2024-02-21T12:02:47;13.20;77.60
8994;DHT22;4532;50.886;4.700;2024-02-21T12:05:14;13.20;77.50
8994;DHT22;4532;50.886;4.700;2024-02-21T12:07:42;13.20;76.80
8994;DHT22;4532;50.886;4.700;2024-02-21T12:10:12;13.10;77.10
8994;DHT22;4532;50.886;4.700;2024-02-21T12:12:40;13.10;76.70
8994;DHT22;4532;50.886;4.700;2024-02-21T12:15:11;13.10;77.10
8994;DHT22;4532;50.886;4.700;2024-02-21T12:17:40;13.10;76.90
8994;DHT22;4532;50.886;4.700;2024-02-21T12:20:08;13.10;77.40
8994;DHT22;4532;50.886;4.700;2024-02-21T12:22:41;13.10;77.30
8994;DHT22;4532;50.886;4.700;2024-02-21T12:25:22;13.10;77.30
8994;DHT22;4532;50.886;4.700;2024-02-21T12:27:56;13.10;77.30
8994;DHT22;4532;50.886;4.700;2024-02-21T12:30:23;13.10;77.10
8994;DHT22;4532;50.886;4.700;2024-02-21T12:32:55;13.10;77.30
8994;DHT22;4532;50.886;4.700;2024-02-21T12:35:26;13.10;77.30
8994;DHT22;4532;50.886;4.700;2024-02-21T12:37:53;13.10;76.90
8994;DHT22;4532;50.886;4.700;2024-02-21T12:40:21;13.10;77.20
8994;DHT22;4532;50.886;4.700;2024-02-21T12:42:48;13.10;77.10
8994;DHT22;4532;50.886;4.700;2024-02-21T12:45:15;13.10;77.40
8994;DHT22;4532;50.886;4.700;2024-02-21T12:47:45;13.10;77.40
8994;DHT22;4532;50.886;4.700;2024-02-21T12:50:17;13.10;77.40
8994;DHT22;4532;50.886;4.700;2024-02-21T12:52:46;13.10;77.20
8994;DHT22;4532;50.886;4.700;2024-02-21T12:55:16;13.10;77.30
8994;DHT22;4532;50.886;4.700;2024-02-21T12:57:48;13.10;77.40
8994;DHT22;4532;50.886;4.700;2024-02-21T13:00:18;13.10;77.40
8994;DHT22;4532;50.886;4.700;2024-02-21T13:02:45;13.20;77.20
8994;DHT22;4532;50.886;4.700;2024-02-21T13:05:20;13.20;77.40
8994;DHT22;4532;50.886;4.700;2024-02-21T13:07:48;13.20;77.50
8994;DHT22;4532;50.886;4.700;2024-02-21T13:10:15;13.20;77.40
8994;DHT22;4532;50.886;4.700;2024-02-21T13:12:43;13.20;77.30
8994;DHT22;4532;50.886;4.700;2024-02-21T13:15:12;13.20;76.60
8994;DHT22;4532;50.886;4.700;2024-02-21T13:17:39;13.20;77.20
8994;DHT22;4532;50.886;4.700;2024-02-21T13:20:07;13.30;77.10
8994;DHT22;4532;50.886;4.700;2024-02-21T13:22:35;13.30;77.10
8994;DHT22;4532;50.886;4.700;2024-02-21T13:25:05;13.20;77.00
8994;DHT22;4532;50.886;4.700;2024-02-21T13:27:34;13.30;77.10
8994;DHT22;4532;50.886;4.700;2024-02-21T13:30:03;13.30;77.30
8994;DHT22;4532;50.886;4.700;2024-02-21T13:32:32;13.30;76.70
8994;DHT22;4532;50.886;4.700;2024-02-21T13:35:03;13.30;77.00
8994;DHT22;4532;50.886;4.700;2024-02-21T13:37:32;13.30;77.20
8994;DHT22;4532;50.886;4.700;2024-02-21T13:40:03;13.30;77.20
8994;DHT22;4532;50.886;4.700;2024-02-21T13:42:31;13.30;77.20
8994;DHT22;4532;50.886;4.700;2024-02-21T13:45:00;13.40;76.90
8994;DHT22;4532;50.886;4.700;2024-02-21T13:47:30;13.40;77.20
8994;DHT22;4532;50.886;4.700;2024-02-21T13:49:57;13.40;77.00
8994;DHT22;4532;50.886;4.700;2024-02-21T13:52:26;13.40;77.10
8994;DHT22;4532;50.886;4.700;2024-02-21T13:54:56;13.40;77.10
8994;DHT22;4532;50.886;4.700;2024-02-21T13:57:24;13.40;77.00
8994;DHT22;4532;50.886;4.700;2024-02-21T13:59:52;13.40;77.00
8994;DHT22;4532;50.886;4.700;2024-02-21T14:02:19;13.40;77.20
8994;DHT22;4532;50.886;4.700;2024-02-21T14:04:47;13.40;77.10
8994;DHT22;4532;50.886;4.700;2024-02-21T14:07:16;13.40;77.10
8994;DHT22;4532;50.886;4.700;2024-02-21T14:09:46;13.40;77.10
8994;DHT22;4532;50.886;4.700;2024-02-21T14:12:16;13.50;76.80
8994;DHT22;4532;50.886;4.700;2024-02-21T14:14:49;13.40;76.80
8994;DHT22;4532;50.886;4.700;2024-02-21T14:17:17;13.40;76.90
8994;DHT22;4532;50.886;4.700;2024-02-21T14:19:46;13.50;76.90
8994;DHT22;4532;50.886;4.700;2024-02-21T14:22:23;13.40;76.90
8994;DHT22;4532;50.886;4.700;2024-02-21T14:24:50;13.40;76.90
8994;DHT22;4532;50.886;4.700;2024-02-21T14:27:17;13.40;77.00
8994;DHT22;4532;50.886;4.700;2024-02-21T14:29:47;13.40;77.00
8994;DHT22;4532;50.886;4.700;2024-02-21T14:32:14;13.40;77.10
8994;DHT22;4532;50.886;4.700;2024-02-21T14:34:41;13.40;76.90
8994;DHT22;4532;50.886;4.700;2024-02-21T14:37:11;13.40;77.20
8994;DHT22;4532;50.886;4.700;2024-02-21T14:39:38;13.40;77.00
8994;DHT22;4532;50.886;4.700;2024-02-21T14:42:07;13.40;77.00
8994;DHT22;4532;50.886;4.700;2024-02-21T14:44:40;13.40;77.10
8994;DHT22;4532;50.886;4.700;2024-02-21T14:47:08;13.40;77.10
8994;DHT22;4532;50.886;4.700;2024-02-21T14:49:35;13.40;77.10
8994;DHT22;4532;50.886;4.700;2024-02-21T14:52:05;13.40;77.20
8994;DHT22;4532;50.886;4.700;2024-02-21T14:54:34;13.40;77.10
8994;DHT22;4532;50.886;4.700;2024-02-21T14:57:02;13.40;77.20
8994;DHT22;4532;50.886;4.700;2024-02-21T14:59:29;13.40;77.10
8994;DHT22;4532;50.886;4.700;2024-02-21T15:02:01;13.40;77.10
8994;DHT22;4532;50.886;4.700;2024-02-21T15:04:28;13.40;77.10
8994;DHT22;4532;50.886;4.700;2024-02-21T15:06:56;13.30;76.90
8994;DHT22;4532;50.886;4.700;2024-02-21T15:09:25;13.30;76.90
8994;DHT22;4532;50.886;4.700;2024-02-21T15:11:55;13.30;77.00
8994;DHT22;4532;50.886;4.700;2024-02-21T15:14:27;13.30;77.10
8994;DHT22;4532;50.886;4.700;2024-02-21T15:16:59;13.20;76.90
8994;DHT22;4532;50.886;4.700;2024-02-21T15:19:29;13.30;77.10
8994;DHT22;4532;50.886;4.700;2024-02-21T15:21:56;13.20;77.00
8994;DHT22;4532;50.886;4.700;2024-02-21T15:24:23;13.20;77.20
8994;DHT22;4532;50.886;4.700;2024-02-21T15:26:53;13.20;77.20
8994;DHT22;4532;50.886;4.700;2024-02-21T15:29:23;13.20;77.10
8994;DHT22;4532;50.886;4.700;2024-02-21T15:31:50;13.20;77.10
8994;DHT22;4532;50.886;4.700;2024-02-21T15:34:18;13.20;77.00
8994;DHT22;4532;50.886;4.700;2024-02-21T15:36:47;13.20;77.00
8994;DHT22;4532;50.886;4.700;2024-02-21T15:39:17;13.20;77.10
8994;DHT22;4532;50.886;4.700;2024-02-21T15:41:44;13.20;77.10
8994;DHT22;4532;50.886;4.700;2024-02-21T15:44:11;13.10;77.10
8994;DHT22;4532;50.886;4.700;2024-02-21T15:46:44;13.10;77.10
8994;DHT22;4532;50.886;4.700;2024-02-21T15:49:13;13.10;77.00
8994;DHT22;4532;50.886;4.700;2024-02-21T15:51:43;13.10;77.10
8994;DHT22;4532;50.886;4.700;2024-02-21T15:54:10;13.00;76.90
8994;DHT22;4532;50.886;4.700;2024-02-21T15:56:39;13.00;76.90
8994;DHT22;4532;50.886;4.700;2024-02-21T15:59:09;13.00;77.00
8994;DHT22;4532;50.886;4.700;2024-02-21T16:01:41;13.00;77.10
8994;DHT22;4532;50.886;4.700;2024-02-21T16:04:12;13.00;76.90
8994;DHT22;4532;50.886;4.700;2024-02-21T16:06:45;13.00;77.00
8994;DHT22;4532;50.886;4.700;2024-02-21T16:09:18;13.00;77.00
8994;DHT22;4532;50.886;4.700;2024-02-21T16:11:48;12.90;77.00
8994;DHT22;4532;50.886;4.700;2024-02-21T16:14:19;12.90;77.00
8994;DHT22;4532;50.886;4.700;2024-02-21T16:16:52;12.90;77.00
8994;DHT22;4532;50.886;4.700;2024-02-21T16:19:19;12.90;77.10
8994;DHT22;4532;50.886;4.700;2024-02-21T16:21:46;12.90;77.10
8994;DHT22;4532;50.886;4.700;2024-02-21T16:24:14;12.90;77.10
8994;DHT22;4532;50.886;4.700;2024-02-21T16:26:44;12.90;77.00